Terminal Aerodrome Forecast
Issued by NWS

Home | Current Version | Previous Version | Text Only | Print | Product List | Glossary On
Versions: 1 2 3 4 5 6 7 8 9 10 11 12 13 14 15 16 17 18 19
000
FTUS41 KBTV 211100
TAFMPV
TAF
KMPV 211121Z 2112/2212 20008KT P6SM FEW060 SCT200
     FM220000 17005KT 6SM -SHRA BR OVC035
     FM220400 33004KT 4SM BR OVC020=

USA.gov is the U.S. government's official web portal to all federal, state and local government web resources and services.